Time;durP1;ratioP1;P1;durP2;ratioP2;P2;SDS_P1;SDS_P2;PMS_P1;PMS_P2;Temp;Humidity;BMP_temperature;BMP_pressure;BME280_temperature;BME280_humidity;BME280_pressure;Samples;Min_cycle;Max_cycle;Signal;HPM_P1;HPM_P2
2023/09/27 00:00:29;;;;;;;14.30;7.40;;;11.10;99.90;;;;;;4958745;28;20444;-60
2023/09/27 00:02:55;;;;;;;21.30;6.60;;;11.10;99.90;;;;;;4958704;28;20877;-60
2023/09/27 00:05:21;;;;;;;23.67;6.43;;;11.10;99.90;;;;;;4958012;28;20198;-60
2023/09/27 00:07:46;;;;;;;36.20;7.20;;;11.10;99.90;;;;;;4959391;28;20197;-60
2023/09/27 00:10:12;;;;;;;49.90;8.30;;;11.00;99.90;;;;;;4959597;28;20181;-60
2023/09/27 00:12:40;;;;;;;45.27;7.20;;;11.00;99.90;;;;;;4958565;28;20664;-60
2023/09/27 00:15:07;;;;;;;23.23;5.80;;;10.90;99.90;;;;;;4961122;28;21154;-60
2023/09/27 00:17:33;;;;;;;16.60;5.23;;;10.90;99.90;;;;;;4960109;28;20469;-60
2023/09/27 00:19:59;;;;;;;8.37;6.03;;;10.90;99.90;;;;;;4959980;28;20445;-60
2023/09/27 00:22:25;;;;;;;21.97;6.00;;;10.90;99.90;;;;;;4958153;28;20190;-60
2023/09/27 00:24:53;;;;;;;9.20;6.03;;;10.80;99.90;;;;;;4962498;28;20692;-60
2023/09/27 00:27:19;;;;;;;17.60;5.87;;;10.80;99.90;;;;;;4960492;28;20227;-60
2023/09/27 00:29:45;;;;;;;6.47;5.30;;;10.90;99.90;;;;;;4959092;28;20860;-60
2023/09/27 00:32:12;;;;;;;20.73;6.23;;;10.80;99.90;;;;;;4959544;28;20293;-61
2023/09/27 00:34:38;;;;;;;7.10;5.60;;;10.90;99.90;;;;;;4959976;28;20438;-60
2023/09/27 00:37:04;;;;;;;22.33;5.87;;;10.90;99.90;;;;;;4961121;28;20497;-59
2023/09/27 00:39:29;;;;;;;18.27;5.63;;;10.90;99.90;;;;;;4956266;28;20268;-60
2023/09/27 00:41:55;;;;;;;26.23;5.27;;;10.90;99.90;;;;;;4959887;28;20990;-60
2023/09/27 00:44:21;;;;;;;21.50;6.10;;;10.90;99.90;;;;;;4959970;28;20274;-60
2023/09/27 00:46:49;;;;;;;7.67;5.20;;;10.80;99.90;;;;;;4960524;28;20208;-59
2023/09/27 00:49:15;;;;;;;8.37;4.80;;;10.80;99.90;;;;;;4958294;28;20202;-59
2023/09/27 00:51:42;;;;;;;5.40;4.90;;;10.80;99.90;;;;;;4958931;28;20444;-60
2023/09/27 00:54:09;;;;;;;6.43;5.33;;;10.70;99.90;;;;;;4956806;28;20432;-60
2023/09/27 00:56:35;;;;;;;16.50;8.33;;;10.80;99.90;;;;;;4958504;28;20517;-60
2023/09/27 00:59:01;;;;;;;41.77;11.80;;;10.80;99.90;;;;;;4958433;28;20446;-61
2023/09/27 01:01:27;;;;;;;35.37;12.27;;;10.80;99.90;;;;;;4958091;28;21502;-60
2023/09/27 01:03:53;;;;;;;29.83;10.50;;;10.80;99.90;;;;;;4956183;28;20437;-60
2023/09/27 01:06:19;;;;;;;24.47;9.83;;;10.80;99.90;;;;;;4961804;28;20572;-60
2023/09/27 01:08:46;;;;;;;41.50;11.67;;;10.80;99.90;;;;;;4960164;28;20465;-60
2023/09/27 01:11:12;;;;;;;18.33;8.33;;;10.80;99.90;;;;;;4958147;28;20441;-60
2023/09/27 01:13:38;;;;;;;17.70;8.37;;;10.80;99.90;;;;;;4958264;28;20523;-61
2023/09/27 01:16:04;;;;;;;16.40;7.70;;;10.80;99.90;;;;;;4958426;28;20505;-60
2023/09/27 01:18:29;;;;;;;28.67;6.33;;;10.80;99.90;;;;;;4959111;28;20851;-60
2023/09/27 01:20:55;;;;;;;11.20;6.37;;;10.80;99.90;;;;;;4957434;28;20906;-60
2023/09/27 01:23:21;;;;;;;11.97;7.13;;;10.80;99.90;;;;;;4958839;28;20177;-60
2023/09/27 01:25:50;;;;;;;12.43;7.60;;;10.70;99.90;;;;;;4963846;28;20222;-60
2023/09/27 01:28:20;;;;;;;11.73;6.23;;;10.70;99.90;;;;;;4963465;28;20193;-61
2023/09/27 01:30:47;;;;;;;22.00;7.87;;;10.70;99.90;;;;;;4962595;28;20439;-61
2023/09/27 01:33:13;;;;;;;18.10;7.93;;;10.70;99.90;;;;;;4962278;28;21105;-60
2023/09/27 01:35:43;;;;;;;53.40;11.77;;;10.70;99.90;;;;;;4965134;28;20464;-60
2023/09/27 01:38:10;;;;;;;99.20;10.90;;;10.70;99.90;;;;;;4961943;28;20460;-60
2023/09/27 01:40:38;;;;;;;24.17;9.20;;;10.70;99.90;;;;;;4963362;28;20563;-59
2023/09/27 01:43:04;;;;;;;17.20;9.23;;;10.60;99.90;;;;;;4961336;28;20444;-60
2023/09/27 01:45:31;;;;;;;17.37;8.47;;;10.60;99.90;;;;;;4963298;28;20464;-60
2023/09/27 01:47:57;;;;;;;8.73;5.93;;;10.60;99.90;;;;;;4962818;28;20235;-60
2023/09/27 01:50:24;;;;;;;14.93;6.77;;;10.50;99.90;;;;;;4961770;28;20437;-60
2023/09/27 01:52:50;;;;;;;27.20;9.10;;;10.50;99.90;;;;;;4958908;28;20556;-60
2023/09/27 01:55:16;;;;;;;29.97;10.50;;;10.50;99.90;;;;;;4963006;28;20437;-61
2023/09/27 01:57:42;;;;;;;24.70;10.10;;;10.50;99.90;;;;;;4965024;28;20469;-60
2023/09/27 02:00:09;;;;;;;24.23;10.90;;;10.50;99.90;;;;;;4964909;28;20194;-60
2023/09/27 02:02:35;;;;;;;17.83;10.13;;;10.50;99.90;;;;;;4961024;28;20266;-61
2023/09/27 02:05:01;;;;;;;33.87;12.90;;;10.50;99.90;;;;;;4962737;28;20444;-60
2023/09/27 02:07:26;;;;;;;34.73;11.57;;;10.50;99.90;;;;;;4963425;28;20645;-60
2023/09/27 02:09:52;;;;;;;27.63;10.70;;;10.40;99.90;;;;;;4960217;28;20941;-60
2023/09/27 02:12:18;;;;;;;22.70;10.10;;;10.40;99.90;;;;;;4960810;28;20190;-60
2023/09/27 02:14:43;;;;;;;28.10;12.03;;;10.40;99.90;;;;;;4962341;28;20257;-60
2023/09/27 02:17:09;;;;;;;31.13;13.03;;;10.40;99.90;;;;;;4963984;28;20209;-60
2023/09/27 02:19:34;;;;;;;26.03;12.23;;;10.40;99.90;;;;;;4961079;28;20190;-60
2023/09/27 02:22:00;;;;;;;34.87;13.33;;;10.30;99.90;;;;;;4962351;28;20264;-61
2023/09/27 02:24:27;;;;;;;25.90;13.63;;;10.30;99.90;;;;;;4964837;28;20174;-60
2023/09/27 02:26:53;;;;;;;50.47;11.10;;;10.30;99.90;;;;;;4963026;28;20472;-60
2023/09/27 02:29:20;;;;;;;167.93;14.73;;;10.30;99.90;;;;;;4962928;28;20429;-60
2023/09/27 02:31:45;;;;;;;20.83;7.80;;;10.30;99.90;;;;;;4961691;28;20491;-60
2023/09/27 02:34:12;;;;;;;28.10;9.70;;;10.20;99.90;;;;;;4962960;28;20425;-60
2023/09/27 02:36:38;;;;;;;46.93;9.43;;;10.20;99.90;;;;;;4963210;28;20222;-60
2023/09/27 02:39:04;;;;;;;24.77;9.60;;;10.20;99.90;;;;;;4957798;28;20442;-61
2023/09/27 02:41:30;;;;;;;41.30;11.73;;;10.10;99.90;;;;;;4961316;28;20437;-59
2023/09/27 02:43:56;;;;;;;149.83;14.23;;;10.10;99.90;;;;;;4962375;28;20806;-60
2023/09/27 02:46:22;;;;;;;141.67;15.80;;;10.00;99.90;;;;;;4962153;28;20501;-60
2023/09/27 02:48:47;;;;;;;205.93;20.10;;;10.00;99.90;;;;;;4959570;28;20194;-59
2023/09/27 02:51:17;;;;;;;70.97;14.23;;;9.90;99.90;;;;;;4961945;28;20181;-60
2023/09/27 02:53:44;;;;;;;84.43;14.50;;;9.90;99.90;;;;;;4961485;28;20834;-60
2023/09/27 02:56:11;;;;;;;55.83;13.73;;;9.80;99.90;;;;;;4960825;28;20480;-60
2023/09/27 02:58:39;;;;;;;144.63;19.80;;;9.80;99.90;;;;;;4960129;28;20843;-60
2023/09/27 03:01:05;;;;;;;74.70;20.63;;;9.80;99.90;;;;;;4963912;28;20425;-60
2023/09/27 03:03:31;;;;;;;55.87;18.77;;;9.80;99.90;;;;;;4962571;28;20441;-60
2023/09/27 03:05:59;;;;;;;33.13;12.50;;;9.80;99.90;;;;;;4962434;28;20248;-60
2023/09/27 03:08:25;;;;;;;29.63;12.77;;;9.90;99.90;;;;;;4960984;28;20845;-60
2023/09/27 03:10:51;;;;;;;71.43;10.97;;;9.90;99.90;;;;;;4961549;28;20428;-60
2023/09/27 03:13:17;;;;;;;97.07;13.40;;;9.90;99.90;;;;;;4961658;28;20722;-60
2023/09/27 03:15:44;;;;;;;31.13;9.37;;;9.90;99.90;;;;;;4960388;28;20303;-60
2023/09/27 03:18:10;;;;;;;20.73;10.67;;;9.80;99.90;;;;;;4961146;28;20433;-60
2023/09/27 03:20:36;;;;;;;75.97;14.73;;;9.80;99.90;;;;;;4960601;28;20464;-61
2023/09/27 03:23:02;;;;;;;54.27;14.83;;;9.80;99.90;;;;;;4963195;28;20424;-61
2023/09/27 03:25:28;;;;;;;53.53;13.87;;;9.80;99.90;;;;;;4960857;28;20548;-60
2023/09/27 03:27:54;;;;;;;61.03;12.90;;;9.80;99.90;;;;;;4960421;28;20480;-60
2023/09/27 03:30:20;;;;;;;15.37;9.27;;;9.80;99.90;;;;;;4959930;28;21141;-59
2023/09/27 03:32:46;;;;;;;42.10;10.90;;;9.80;99.90;;;;;;4961734;28;20213;-60
2023/09/27 03:35:12;;;;;;;40.30;9.93;;;9.80;99.90;;;;;;4962106;28;21144;-60
2023/09/27 03:37:39;;;;;;;15.63;8.60;;;9.80;99.90;;;;;;4960614;28;20457;-59
2023/09/27 03:40:15;;;;;;;40.27;8.70;;;9.80;99.90;;;;;;4960162;28;20547;-60
2023/09/27 03:42:45;;;;;;;16.10;8.00;;;9.80;99.90;;;;;;4961745;28;20931;-61
2023/09/27 03:45:12;;;;;;;22.47;8.53;;;9.80;99.90;;;;;;4962812;28;20500;-59
2023/09/27 03:47:38;;;;;;;21.67;7.87;;;9.70;99.90;;;;;;4958339;28;22185;-59
2023/09/27 03:50:05;;;;;;;12.83;6.80;;;9.70;99.90;;;;;;4959127;28;20437;-59
2023/09/27 03:52:30;;;;;;;8.70;5.77;;;9.70;99.90;;;;;;4960606;28;20448;-59
2023/09/27 03:54:56;;;;;;;12.33;8.33;;;9.70;99.90;;;;;;4960546;28;21083;-59
2023/09/27 03:57:21;;;;;;;41.23;9.73;;;9.70;99.90;;;;;;4967236;28;20230;-58
2023/09/27 03:59:48;;;;;;;24.23;9.60;;;9.60;99.90;;;;;;4955525;28;20632;-59
2023/09/27 04:02:14;;;;;;;23.77;12.30;;;9.60;99.90;;;;;;4962103;28;20205;-54
2023/09/27 04:04:40;;;;;;;26.63;13.83;;;9.60;99.90;;;;;;4964748;28;20875;-53
2023/09/27 04:07:05;;;;;;;80.93;15.10;;;9.60;99.90;;;;;;4949309;28;20201;-54
2023/09/27 04:09:32;;;;;;;26.43;10.50;;;9.60;99.90;;;;;;4952517;28;20256;-55
2023/09/27 04:11:57;;;;;;;27.83;10.77;;;9.60;99.90;;;;;;4970756;28;20177;-55
2023/09/27 04:14:23;;;;;;;18.67;9.37;;;9.60;99.90;;;;;;4953666;28;20425;-59
2023/09/27 04:16:48;;;;;;;256.90;16.30;;;9.60;99.90;;;;;;4954906;28;20807;-60
2023/09/27 04:19:14;;;;;;;71.93;9.10;;;9.60;99.90;;;;;;4964089;28;20186;-59
2023/09/27 04:21:39;;;;;;;14.80;8.60;;;9.60;99.90;;;;;;4958889;28;20174;-59
2023/09/27 04:24:06;;;;;;;19.40;8.20;;;9.50;99.90;;;;;;4966238;28;20902;-59
2023/09/27 04:26:32;;;;;;;18.90;8.97;;;9.50;99.90;;;;;;4962969;28;20209;-59
2023/09/27 04:29:00;;;;;;;31.10;8.90;;;9.50;99.90;;;;;;4962115;28;20445;-59
2023/09/27 04:31:25;;;;;;;13.83;7.90;;;9.50;99.90;;;;;;4959812;28;20610;-59
2023/09/27 04:33:51;;;;;;;19.93;8.30;;;9.50;99.90;;;;;;4965050;28;21020;-59
2023/09/27 04:36:17;;;;;;;30.20;10.90;;;9.50;99.90;;;;;;4957484;28;20471;-59
2023/09/27 04:38:46;;;;;;;105.13;14.10;;;9.50;99.90;;;;;;4956646;28;20192;-59
2023/09/27 04:41:16;;;;;;;64.23;13.70;;;9.50;99.90;;;;;;4960389;28;20520;-58
2023/09/27 04:43:42;;;;;;;32.53;10.77;;;9.40;99.90;;;;;;4957931;28;20966;-57
2023/09/27 04:46:11;;;;;;;45.17;10.57;;;9.40;99.90;;;;;;4963128;28;20483;-57
2023/09/27 04:48:37;;;;;;;64.10;9.33;;;9.40;99.90;;;;;;4959207;28;20441;-59
2023/09/27 04:51:03;;;;;;;64.87;10.93;;;9.40;99.90;;;;;;4960602;28;20436;-58
2023/09/27 04:53:30;;;;;;;25.30;8.23;;;9.30;99.90;;;;;;4979629;28;20186;-59
2023/09/27 04:55:56;;;;;;;30.03;8.90;;;9.30;99.90;;;;;;4962820;28;20546;-59
2023/09/27 04:58:22;;;;;;;16.10;7.20;;;9.30;99.90;;;;;;4963875;28;20476;-59
2023/09/27 05:00:47;;;;;;;11.17;6.60;;;9.30;99.90;;;;;;4964775;28;20462;-59
2023/09/27 05:03:13;;;;;;;19.40;6.20;;;9.30;99.90;;;;;;4970126;28;20178;-59
2023/09/27 05:05:39;;;;;;;13.93;6.43;;;9.30;99.90;;;;;;4987016;28;20642;-59
2023/09/27 05:08:05;;;;;;;13.27;7.17;;;9.30;99.90;;;;;;4967145;28;20265;-59
2023/09/27 05:10:30;;;;;;;13.17;7.30;;;9.40;99.90;;;;;;4965037;28;20201;-59
2023/09/27 05:12:56;;;;;;;17.80;8.13;;;9.30;99.90;;;;;;4969718;28;21094;-58
2023/09/27 05:15:22;;;;;;;27.30;8.60;;;9.40;99.90;;;;;;4970287;28;20433;-59
2023/09/27 05:17:48;;;;;;;26.40;7.73;;;9.30;99.90;;;;;;4966697;28;20751;-60
2023/09/27 05:20:14;;;;;;;45.80;9.83;;;9.40;99.90;;;;;;4961672;28;20182;-58
2023/09/27 05:22:40;;;;;;;56.73;10.30;;;9.30;99.90;;;;;;4971608;28;20692;-59
2023/09/27 05:25:07;;;;;;;147.47;14.93;;;9.30;99.90;;;;;;4969279;28;20440;-59
2023/09/27 05:27:34;;;;;;;45.40;10.20;;;9.30;99.90;;;;;;4966706;28;20524;-59
2023/09/27 05:30:00;;;;;;;28.97;9.70;;;9.20;99.90;;;;;;4970803;28;20433;-58
2023/09/27 05:32:27;;;;;;;15.87;8.90;;;9.20;99.90;;;;;;4968938;28;20457;-58
2023/09/27 05:34:53;;;;;;;76.27;12.67;;;9.20;99.90;;;;;;4969523;28;20464;-58
2023/09/27 05:37:18;;;;;;;21.20;9.03;;;9.20;99.90;;;;;;4961286;28;20905;-59
2023/09/27 05:39:44;;;;;;;16.20;8.90;;;9.20;99.90;;;;;;4970082;28;20185;-58
2023/09/27 05:42:09;;;;;;;64.10;13.10;;;9.20;99.90;;;;;;4968653;28;20754;-58
2023/09/27 05:44:35;;;;;;;37.87;12.17;;;9.20;99.90;;;;;;4961982;28;20512;-59
2023/09/27 05:47:01;;;;;;;42.67;12.27;;;9.20;99.90;;;;;;4964560;28;20672;-58
2023/09/27 05:49:26;;;;;;;51.03;11.50;;;9.20;99.90;;;;;;4966543;28;20182;-59
2023/09/27 05:51:52;;;;;;;54.23;12.93;;;9.20;99.90;;;;;;4969926;28;20209;-59
2023/09/27 05:54:21;;;;;;;37.30;12.73;;;9.20;99.90;;;;;;4969348;28;20190;-59
2023/09/27 05:56:51;;;;;;;26.20;10.47;;;9.20;99.90;;;;;;4967548;28;20225;-59
2023/09/27 05:59:17;;;;;;;43.03;11.67;;;9.10;99.90;;;;;;4959986;28;20456;-59
2023/09/27 06:01:43;;;;;;;24.00;11.57;;;9.10;99.90;;;;;;4964072;28;20945;-59
2023/09/27 06:04:10;;;;;;;74.80;21.57;;;9.10;99.90;;;;;;4963193;28;20451;-58
2023/09/27 06:06:36;;;;;;;42.47;13.87;;;9.10;99.90;;;;;;4984400;28;20461;-59
2023/09/27 06:09:05;;;;;;;29.03;10.00;;;9.20;99.90;;;;;;4966081;28;20508;-60
2023/09/27 06:11:32;;;;;;;32.37;10.90;;;9.20;99.90;;;;;;4964292;28;20452;-59
2023/09/27 06:13:58;;;;;;;16.50;9.17;;;9.30;99.90;;;;;;4962390;28;20525;-58
2023/09/27 06:16:24;;;;;;;33.07;9.70;;;9.30;99.90;;;;;;4964600;28;20548;-59
2023/09/27 06:18:50;;;;;;;42.60;9.80;;;9.30;99.90;;;;;;4962314;28;20778;-59
2023/09/27 06:21:15;;;;;;;20.53;10.27;;;9.30;99.90;;;;;;4963089;28;20430;-58
2023/09/27 06:23:41;;;;;;;24.60;9.37;;;9.30;99.90;;;;;;4963969;28;20877;-59
2023/09/27 06:26:07;;;;;;;32.70;8.97;;;9.30;99.90;;;;;;4965282;28;20201;-59
2023/09/27 06:28:33;;;;;;;11.97;6.80;;;9.30;99.90;;;;;;4962692;28;20534;-59
2023/09/27 06:30:59;;;;;;;15.40;7.90;;;9.30;99.90;;;;;;4963372;28;20186;-59
2023/09/27 06:33:25;;;;;;;86.63;8.83;;;9.30;99.90;;;;;;4962523;28;20488;-58
2023/09/27 06:35:52;;;;;;;28.70;7.17;;;9.30;99.90;;;;;;4962529;28;20500;-58
2023/09/27 06:38:21;;;;;;;48.03;6.97;;;9.30;99.90;;;;;;4963796;28;20291;-59
2023/09/27 06:40:48;;;;;;;28.30;6.60;;;9.30;99.90;;;;;;4961494;28;20438;-58
2023/09/27 06:43:14;;;;;;;23.13;5.60;;;9.20;99.90;;;;;;4964324;28;21017;-59
2023/09/27 06:45:40;;;;;;;77.40;9.90;;;9.20;99.90;;;;;;4962325;28;20477;-58
2023/09/27 06:48:07;;;;;;;24.90;6.60;;;9.20;99.90;;;;;;4962939;28;20627;-59
2023/09/27 06:50:32;;;;;;;9.97;6.73;;;9.20;99.90;;;;;;4961141;28;20483;-58
2023/09/27 06:52:58;;;;;;;17.93;8.53;;;9.20;99.90;;;;;;4957946;28;20441;-58
2023/09/27 06:55:24;;;;;;;21.40;9.97;;;9.20;99.90;;;;;;4959805;28;20261;-59
2023/09/27 06:57:52;;;;;;;15.33;8.43;;;9.20;99.90;;;;;;4964812;28;20206;-58
2023/09/27 07:00:24;;;;;;;16.73;6.80;;;9.30;99.90;;;;;;4962185;28;20582;-58
2023/09/27 07:02:51;;;;;;;24.70;6.70;;;9.30;99.90;;;;;;4962263;28;20555;-59
2023/09/27 07:05:20;;;;;;;21.17;6.37;;;9.30;99.90;;;;;;4963405;28;20430;-58
2023/09/27 07:07:47;;;;;;;44.50;6.97;;;9.30;99.90;;;;;;4966165;28;20426;-58
2023/09/27 07:10:13;;;;;;;64.97;8.23;;;9.20;99.90;;;;;;4958281;28;20440;-58
2023/09/27 07:12:38;;;;;;;11.27;5.43;;;9.20;99.90;;;;;;4962092;28;20433;-59
2023/09/27 07:15:14;;;;;;;27.17;12.40;;;9.20;99.90;;;;;;4956322;28;20452;-59
2023/09/27 07:17:41;;;;;;;29.20;11.83;;;9.30;99.90;;;;;;4961831;28;20213;-59
2023/09/27 07:20:33;;;;;;;34.43;14.00;;;9.40;99.90;;;;;;4963819;28;20457;-59
2023/09/27 07:22:59;;;;;;;21.33;11.53;;;9.50;99.90;;;;;;4961656;28;20443;-58
2023/09/27 07:25:25;;;;;;;39.87;14.53;;;9.60;99.90;;;;;;4963652;28;20523;-58
2023/09/27 07:27:52;;;;;;;41.07;16.40;;;9.60;99.90;;;;;;4961515;28;20441;-59
2023/09/27 07:30:18;;;;;;;27.63;14.17;;;9.70;99.90;;;;;;4961859;28;20442;-59
2023/09/27 07:32:47;;;;;;;44.30;18.33;;;9.80;99.90;;;;;;4959254;28;20461;-59
2023/09/27 07:35:16;;;;;;;73.20;19.00;;;9.80;99.90;;;;;;4961354;28;20472;-58
2023/09/27 07:37:43;;;;;;;48.57;16.90;;;9.90;99.90;;;;;;4962684;28;20461;-59
2023/09/27 07:40:11;;;;;;;27.20;13.20;;;9.90;99.90;;;;;;4962629;28;20979;-58
2023/09/27 07:42:44;;;;;;;24.03;13.13;;;9.90;99.90;;;;;;4964458;28;20418;-59
2023/09/27 07:45:22;;;;;;;19.90;10.63;;;10.00;99.90;;;;;;4962868;28;20488;-59
2023/09/27 07:47:53;;;;;;;31.20;14.40;;;10.10;99.90;;;;;;4959887;28;20436;-59
2023/09/27 07:50:20;;;;;;;40.67;17.00;;;10.20;99.90;;;;;;4962377;28;20429;-58
2023/09/27 07:52:47;;;;;;;54.83;19.87;;;10.30;99.90;;;;;;4958685;28;20532;-58
2023/09/27 07:55:14;;;;;;;47.77;18.40;;;10.40;99.90;;;;;;4958906;28;20536;-59
2023/09/27 07:57:43;;;;;;;33.67;15.57;;;10.50;99.90;;;;;;4960297;28;20465;-59
2023/09/27 08:00:10;;;;;;;42.90;17.27;;;10.60;99.90;;;;;;4958853;28;20445;-58
2023/09/27 08:02:36;;;;;;;40.63;17.47;;;10.70;99.90;;;;;;4960252;28;21004;-59
2023/09/27 08:05:09;;;;;;;44.60;18.60;;;10.80;99.90;;;;;;4962909;28;20434;-58
2023/09/27 08:07:39;;;;;;;37.37;19.00;;;10.90;99.90;;;;;;4963271;28;20517;-58
2023/09/27 08:10:06;;;;;;;22.60;11.77;;;10.90;99.90;;;;;;4962691;28;20515;-59
2023/09/27 08:12:34;;;;;;;13.80;10.07;;;11.00;99.90;;;;;;4960282;28;20463;-59
2023/09/27 08:15:00;;;;;;;12.57;8.10;;;11.00;99.90;;;;;;4959247;28;20441;-59
2023/09/27 08:17:26;;;;;;;9.80;8.20;;;11.10;99.90;;;;;;4959516;28;20907;-58
2023/09/27 08:19:52;;;;;;;8.03;6.83;;;11.20;99.90;;;;;;4963358;28;20448;-59
2023/09/27 08:22:18;;;;;;;11.13;7.10;;;11.20;99.90;;;;;;4960807;28;20442;-59
2023/09/27 08:24:43;;;;;;;7.20;6.40;;;11.40;99.90;;;;;;4961844;28;20547;-59
2023/09/27 08:27:09;;;;;;;7.50;6.20;;;11.50;99.90;;;;;;4960190;28;20276;-59
2023/09/27 08:29:35;;;;;;;8.43;6.50;;;11.70;99.90;;;;;;4959065;28;20182;-59
2023/09/27 08:32:00;;;;;;;7.63;6.30;;;11.90;99.90;;;;;;4959965;28;20204;-59
2023/09/27 08:34:26;;;;;;;8.73;6.17;;;12.00;99.90;;;;;;4963779;28;20514;-59
2023/09/27 08:36:52;;;;;;;11.37;6.80;;;12.20;99.90;;;;;;4966775;28;20276;-58
2023/09/27 08:39:18;;;;;;;9.07;6.90;;;12.30;99.90;;;;;;4967048;28;20723;-59
2023/09/27 08:41:44;;;;;;;19.63;8.80;;;12.50;99.90;;;;;;4964996;28;20440;-59
2023/09/27 08:44:11;;;;;;;9.50;8.30;;;12.70;99.90;;;;;;4959667;28;20965;-58
2023/09/27 08:46:38;;;;;;;11.67;8.43;;;12.80;99.90;;;;;;4952965;28;20238;-59
2023/09/27 08:49:04;;;;;;;16.90;9.07;;;12.90;99.90;;;;;;4962566;28;20500;-60
2023/09/27 08:51:30;;;;;;;20.63;12.53;;;13.10;99.90;;;;;;4965898;28;20967;-59
2023/09/27 08:53:56;;;;;;;18.30;12.30;;;13.30;99.90;;;;;;4971640;28;20437;-59
2023/09/27 08:56:27;;;;;;;20.07;13.27;;;13.40;99.90;;;;;;4967224;28;20479;-59
2023/09/27 08:58:53;;;;;;;15.90;10.97;;;13.60;99.90;;;;;;4969018;28;20210;-59
2023/09/27 09:01:19;;;;;;;25.03;12.90;;;13.70;99.90;;;;;;4966895;28;20440;-59
2023/09/27 09:03:46;;;;;;;14.70;11.00;;;13.90;99.90;;;;;;4971251;28;20436;-59
2023/09/27 09:06:12;;;;;;;15.93;10.83;;;14.10;99.90;;;;;;4969022;28;20264;-59
2023/09/27 09:08:42;;;;;;;13.47;11.10;;;14.20;99.90;;;;;;4969275;28;20912;-59
2023/09/27 09:11:11;;;;;;;11.97;8.03;;;14.40;99.90;;;;;;4971891;28;20444;-59
2023/09/27 09:14:05;;;;;;;22.23;10.27;;;14.50;99.90;;;;;;4966227;28;20773;-59
2023/09/27 09:16:39;;;;;;;13.77;10.00;;;14.70;99.90;;;;;;4966892;28;20472;-59
2023/09/27 09:19:24;;;;;;;13.60;10.30;;;14.90;99.90;;;;;;4965845;28;20432;-58
2023/09/27 09:22:11;;;;;;;19.67;12.90;;;15.10;99.90;;;;;;4966029;28;20473;-59
2023/09/27 09:24:41;;;;;;;13.17;9.93;;;15.30;99.90;;;;;;4969118;28;20440;-59
2023/09/27 09:27:09;;;;;;;16.30;11.60;;;15.50;99.90;;;;;;4965972;28;21026;-59
2023/09/27 09:29:46;;;;;;;18.13;11.60;;;15.70;99.90;;;;;;4969296;28;20515;-59
2023/09/27 09:32:22;;;;;;;13.90;9.80;;;15.80;99.90;;;;;;4966521;28;20445;-59
2023/09/27 09:34:49;;;;;;;21.87;13.00;;;16.00;99.90;;;;;;4965433;28;20464;-58
2023/09/27 09:37:21;;;;;;;17.80;13.47;;;16.20;99.90;;;;;;4958964;28;20465;-59
2023/09/27 09:40:05;;;;;;;17.43;11.57;;;16.40;99.90;;;;;;4971430;28;20507;-59
2023/09/27 09:42:33;;;;;;;14.97;10.30;;;16.60;99.90;;;;;;4966357;28;20441;-59
2023/09/27 09:45:10;;;;;;;17.53;9.77;;;16.80;99.90;;;;;;4967489;28;20515;-59
2023/09/27 09:47:37;;;;;;;13.83;9.33;;;17.00;99.90;;;;;;4959335;28;20437;-59
2023/09/27 09:50:18;;;;;;;13.90;10.73;;;17.10;99.90;;;;;;4958472;28;20459;-59
2023/09/27 09:52:58;;;;;;;13.67;8.53;;;17.20;99.90;;;;;;4968607;28;20447;-59
2023/09/27 09:55:31;;;;;;;12.07;9.03;;;17.40;99.90;;;;;;4964900;28;20464;-60
2023/09/27 09:58:21;;;;;;;12.73;9.17;;;17.60;99.90;;;;;;4965662;28;20813;-59
2023/09/27 10:00:49;;;;;;;10.90;8.43;;;17.70;99.90;;;;;;4959291;28;20469;-59
2023/09/27 10:03:20;;;;;;;8.33;6.43;;;17.90;99.90;;;;;;4956557;28;20437;-59
2023/09/27 10:05:50;;;;;;;11.83;7.30;;;18.10;99.90;;;;;;4966280;28;20604;-50
2023/09/27 10:08:17;;;;;;;11.20;7.10;;;18.20;99.90;;;;;;4965188;28;20435;-56
2023/09/27 10:10:43;;;;;;;9.87;7.80;;;18.40;99.90;;;;;;4965092;28;20992;-56
2023/09/27 10:13:10;;;;;;;12.73;7.70;;;18.50;99.90;;;;;;4966234;28;20438;-56
2023/09/27 10:15:38;;;;;;;11.00;7.07;;;18.70;99.90;;;;;;4968064;28;20209;-51
2023/09/27 10:18:22;;;;;;;15.87;8.30;;;18.90;99.90;;;;;;4968155;28;20456;-54
2023/09/27 10:21:03;;;;;;;12.53;7.90;;;19.10;99.90;;;;;;4969280;28;20450;-54
2023/09/27 10:23:57;;;;;;;14.90;6.63;;;19.20;99.90;;;;;;4968966;28;20777;-53
2023/09/27 10:26:28;;;;;;;6.53;5.63;;;19.30;99.90;;;;;;4968741;28;20963;-53
2023/09/27 10:29:16;;;;;;;13.30;5.73;;;19.50;99.90;;;;;;4966368;28;20504;-53
2023/09/27 10:31:54;;;;;;;11.90;5.47;;;19.70;99.90;;;;;;4967695;28;20449;-54
2023/09/27 10:34:26;;;;;;;9.80;5.87;;;19.90;99.90;;;;;;4967849;28;20452;-55
2023/09/27 10:36:53;;;;;;;5.90;5.30;;;20.00;99.90;;;;;;4962681;28;20464;-56
2023/09/27 10:39:19;;;;;;;10.03;4.87;;;20.10;96.00;;;;;;4965960;28;20488;-58
2023/09/27 10:41:49;;;;;;;4.13;3.27;;;20.20;95.10;;;;;;4965131;28;20460;-57
2023/09/27 10:44:31;;;;;;;8.10;3.40;;;20.30;86.20;;;;;;4978933;28;20549;-58
2023/09/27 10:46:58;;;;;;;3.87;3.17;;;20.40;77.60;;;;;;4961693;28;21029;-58
2023/09/27 10:49:37;;;;;;;4.60;2.83;;;20.60;76.70;;;;;;4967546;28;20440;-58
2023/09/27 10:52:03;;;;;;;7.77;3.23;;;20.80;75.10;;;;;;4965905;28;21164;-58
2023/09/27 10:54:28;;;;;;;5.80;3.27;;;21.10;71.60;;;;;;4962066;28;20452;-57
2023/09/27 10:56:56;;;;;;;6.13;3.20;;;21.20;67.70;;;;;;4959319;28;20464;-58
2023/09/27 10:59:28;;;;;;;4.83;3.07;;;21.40;66.00;;;;;;4964612;28;20335;-57
2023/09/27 11:01:55;;;;;;;4.00;3.00;;;21.60;62.70;;;;;;4957576;28;20461;-58
2023/09/27 11:04:24;;;;;;;6.60;3.37;;;21.70;60.90;;;;;;4964668;28;20993;-60
2023/09/27 11:06:51;;;;;;;6.67;3.83;;;21.90;64.40;;;;;;4963899;28;20476;-60
2023/09/27 11:09:19;;;;;;;3.03;2.70;;;22.00;64.70;;;;;;4957607;28;20442;-60
2023/09/27 11:11:53;;;;;;;3.50;2.73;;;22.10;63.20;;;;;;4953518;28;20484;-61
2023/09/27 11:14:32;;;;;;;3.17;2.83;;;22.20;60.50;;;;;;4954840;28;20451;-57
2023/09/27 11:17:25;;;;;;;4.17;3.40;;;22.30;59.30;;;;;;4952372;28;20469;-56
2023/09/27 11:19:51;;;;;;;3.47;3.17;;;22.50;58.10;;;;;;4957546;28;20441;-56
2023/09/27 11:22:27;;;;;;;4.23;2.77;;;22.70;56.40;;;;;;4961534;28;20425;-59
2023/09/27 11:24:53;;;;;;;3.90;2.77;;;22.80;56.90;;;;;;4964370;28;20433;-57
2023/09/27 11:27:20;;;;;;;3.20;2.60;;;22.90;56.00;;;;;;4966985;28;20564;-58
2023/09/27 11:29:53;;;;;;;3.67;2.73;;;23.00;54.60;;;;;;4955549;28;20556;-60
2023/09/27 11:32:22;;;;;;;2.50;2.20;;;23.30;54.50;;;;;;4961920;28;20872;-59
2023/09/27 11:34:55;;;;;;;3.80;2.73;;;23.40;53.80;;;;;;4961401;28;20437;-61
2023/09/27 11:37:23;;;;;;;4.03;2.83;;;23.60;54.20;;;;;;4954502;28;20480;-61
2023/09/27 11:39:50;;;;;;;2.40;2.10;;;23.80;53.60;;;;;;4965138;28;20421;-59
2023/09/27 11:42:26;;;;;;;3.93;2.60;;;23.90;53.20;;;;;;4964961;28;20421;-59
2023/09/27 11:45:08;;;;;;;4.67;2.60;;;24.10;51.70;;;;;;4959298;28;20505;-59
2023/09/27 11:47:50;;;;;;;2.50;2.23;;;24.20;50.50;;;;;;4961506;28;20448;-58
2023/09/27 11:50:17;;;;;;;6.10;2.70;;;24.30;49.00;;;;;;4965615;28;20795;-58
2023/09/27 11:52:46;;;;;;;3.70;2.57;;;24.40;50.10;;;;;;4960559;28;20440;-59
2023/09/27 11:55:21;;;;;;;4.90;2.43;;;24.60;50.30;;;;;;4963169;28;20440;-59
2023/09/27 11:57:46;;;;;;;3.77;2.77;;;24.60;48.40;;;;;;4959984;28;20479;-59
2023/09/27 12:00:15;;;;;;;3.60;2.70;;;24.80;49.40;;;;;;4958292;28;20441;-60
2023/09/27 12:02:41;;;;;;;3.03;2.40;;;24.90;50.00;;;;;;4955549;28;20178;-59
2023/09/27 12:05:07;;;;;;;4.40;2.60;;;25.00;49.70;;;;;;4961733;28;20874;-59
2023/09/27 12:07:33;;;;;;;2.97;2.10;;;25.10;48.90;;;;;;4959380;28;21044;-59
2023/09/27 12:09:58;;;;;;;8.07;2.97;;;25.20;47.70;;;;;;4961972;28;20675;-59
2023/09/27 12:12:24;;;;;;;3.73;2.57;;;25.20;47.70;;;;;;4957842;28;20261;-59
2023/09/27 12:14:50;;;;;;;5.43;2.97;;;25.30;48.20;;;;;;4959564;28;20170;-58
2023/09/27 12:17:16;;;;;;;3.17;2.70;;;25.40;48.20;;;;;;4961351;28;20659;-58
2023/09/27 12:19:43;;;;;;;4.00;2.60;;;25.40;47.60;;;;;;4959250;28;20173;-59
2023/09/27 12:22:10;;;;;;;2.80;2.43;;;25.50;47.50;;;;;;4962088;28;22195;-62
2023/09/27 12:24:35;;;;;;;4.17;2.70;;;25.60;47.70;;;;;;4959906;28;20997;-61
2023/09/27 12:27:01;;;;;;;4.00;2.60;;;25.70;47.40;;;;;;4962739;28;20452;-64
2023/09/27 12:29:26;;;;;;;3.60;2.73;;;25.80;47.30;;;;;;4959552;28;20711;-62
2023/09/27 12:31:52;;;;;;;5.87;3.17;;;25.90;47.30;;;;;;4961049;28;20197;-63
2023/09/27 12:34:19;;;;;;;4.60;2.90;;;25.90;46.80;;;;;;4962013;28;20185;-64
2023/09/27 12:36:45;;;;;;;3.50;2.63;;;26.00;45.50;;;;;;4961130;28;20201;-65
2023/09/27 12:39:10;;;;;;;5.43;2.60;;;26.10;45.30;;;;;;4958154;28;20787;-62
2023/09/27 12:41:36;;;;;;;4.60;2.23;;;26.20;44.90;;;;;;4961417;28;20169;-62